createdAt,value
2023-01-22T00:04:57.587Z,8.80
2023-01-22T00:10:03.313Z,7.80
2023-01-22T00:15:11.180Z,7.50
2023-01-22T00:20:17.948Z,8.40
2023-01-22T00:25:24.066Z,9.50
2023-01-22T00:30:29.635Z,10.00
2023-01-22T00:35:36.104Z,12.00
2023-01-22T00:40:41.628Z,7.20
2023-01-22T00:45:47.208Z,7.50
2023-01-22T00:50:52.832Z,6.40
2023-01-22T00:56:00.520Z,7.60
2023-01-22T01:01:07.223Z,5.20
2023-01-22T01:06:17.791Z,7.50
2023-01-22T01:11:25.835Z,6.40
2023-01-22T01:16:33.034Z,7.30
2023-01-22T01:21:39.174Z,8.30
2023-01-22T01:26:45.019Z,5.70
2023-01-22T01:31:52.825Z,4.60
2023-01-22T01:36:58.267Z,6.70
2023-01-22T01:42:03.858Z,6.60
2023-01-22T01:47:30.208Z,7.30
2023-01-22T01:52:36.326Z,8.90
2023-01-22T01:57:43.165Z,8.50
2023-01-22T02:02:49.996Z,10.00
2023-01-22T02:07:55.655Z,10.20
2023-01-22T02:13:09.453Z,8.60
2023-01-22T02:18:15.166Z,8.40
2023-01-22T02:23:20.799Z,8.90
2023-01-22T02:28:26.400Z,9.40
2023-01-22T02:33:31.835Z,10.20
2023-01-22T02:38:37.318Z,9.00
2023-01-22T02:43:42.843Z,7.60
2023-01-22T02:48:48.566Z,9.20
2023-01-22T02:53:54.757Z,10.70
2023-01-22T02:59:02.003Z,8.70
2023-01-22T03:04:10.809Z,7.60
2023-01-22T03:09:18.540Z,9.90
2023-01-22T03:14:42.182Z,6.50
2023-01-22T03:20:05.734Z,6.80
2023-01-22T03:25:11.660Z,9.10
2023-01-22T03:30:18.311Z,9.00
2023-01-22T03:35:24.795Z,9.00
2023-01-22T03:40:30.349Z,8.60
2023-01-22T03:45:36.356Z,11.40
2023-01-22T03:50:41.881Z,8.60
2023-01-22T03:55:47.342Z,9.40
2023-01-22T04:00:57.082Z,8.90
2023-01-22T04:06:03.018Z,8.40
2023-01-22T04:11:09.892Z,9.00
2023-01-22T04:16:16.766Z,11.10
2023-01-22T04:21:22.477Z,11.00
2023-01-22T04:26:28.100Z,11.80
2023-01-22T04:31:33.755Z,10.70
2023-01-22T04:36:39.332Z,9.90
2023-01-22T04:41:44.841Z,9.60
2023-01-22T04:46:50.333Z,10.00
2023-01-22T04:51:55.920Z,10.00
2023-01-22T04:57:01.543Z,11.40
2023-01-22T05:02:07.259Z,10.60
2023-01-22T05:07:12.718Z,11.20
2023-01-22T05:12:18.302Z,7.80
2023-01-22T05:17:23.880Z,9.60
2023-01-22T05:22:29.426Z,12.40
2023-01-22T05:27:35.019Z,10.90
2023-01-22T05:32:40.522Z,8.40
2023-01-22T05:37:46.026Z,12.00
2023-01-22T05:42:51.501Z,9.10
2023-01-22T05:47:57.862Z,9.40
2023-01-22T05:53:03.612Z,10.60
2023-01-22T05:58:09.308Z,12.70
2023-01-22T06:03:14.841Z,12.80
2023-01-22T06:08:20.438Z,9.10
2023-01-22T06:13:25.985Z,11.30
2023-01-22T06:18:31.927Z,12.90
2023-01-22T06:23:37.936Z,8.40
2023-01-22T06:28:43.434Z,7.50
2023-01-22T06:33:49.047Z,10.90
2023-01-22T06:38:54.606Z,11.60
2023-01-22T06:44:00.173Z,10.00
2023-01-22T06:49:05.757Z,6.80
2023-01-22T06:54:13.753Z,10.40
2023-01-22T06:59:19.354Z,12.40
2023-01-22T07:04:24.849Z,12.80
2023-01-22T07:09:30.582Z,11.50
2023-01-22T07:14:37.111Z,13.40
2023-01-22T07:19:43.064Z,11.50
2023-01-22T07:24:48.539Z,11.10
2023-01-22T07:29:54.055Z,14.00
2023-01-22T07:34:59.529Z,13.30
2023-01-22T07:40:06.950Z,12.80
2023-01-22T07:45:13.233Z,12.90
2023-01-22T07:50:19.588Z,15.50
2023-01-22T07:55:25.482Z,18.40
2023-01-22T08:00:31.889Z,13.40
2023-01-22T08:05:39.158Z,16.60
2023-01-22T08:10:45.435Z,13.40
2023-01-22T08:15:50.956Z,13.80
2023-01-22T08:20:59.414Z,19.30
2023-01-22T08:26:06.107Z,11.60
2023-01-22T08:31:26.336Z,14.30
2023-01-22T08:36:33.618Z,13.70
2023-01-22T08:41:39.703Z,12.40
2023-01-22T08:46:45.210Z,21.10
2023-01-22T08:51:51.068Z,16.70
2023-01-22T08:56:56.782Z,18.30
2023-01-22T09:02:02.726Z,14.90
2023-01-22T09:07:10.066Z,16.50
2023-01-22T09:12:15.653Z,22.00
2023-01-22T09:17:21.198Z,16.80
2023-01-22T09:22:26.801Z,13.40
2023-01-22T09:27:32.333Z,16.30
2023-01-22T09:32:37.948Z,12.60
2023-01-22T09:37:43.565Z,13.30
2023-01-22T09:42:50.113Z,12.50
2023-01-22T09:48:01.286Z,14.70
2023-01-22T09:53:13.459Z,18.00
2023-01-22T09:58:23.128Z,19.00
2023-01-22T10:03:36.110Z,18.60
2023-01-22T10:09:03.899Z,14.40
2023-01-22T10:14:16.284Z,16.00
2023-01-22T10:19:27.653Z,13.80
2023-01-22T10:24:33.269Z,13.00
2023-01-22T10:29:39.100Z,12.50
2023-01-22T10:34:57.084Z,10.80
2023-01-22T10:40:02.592Z,49.40
2023-01-22T10:45:19.422Z,35.40
2023-01-22T10:50:25.003Z,47.10
2023-01-22T10:55:37.380Z,29.50
2023-01-22T11:00:51.777Z,26.20
2023-01-22T11:06:01.649Z,40.80
2023-01-22T11:11:12.959Z,29.10
2023-01-22T11:16:21.834Z,28.70
2023-01-22T11:21:32.450Z,16.80
2023-01-22T11:27:02.347Z,16.60
2023-01-22T11:32:38.050Z,10.50
2023-01-22T11:38:01.724Z,13.50
2023-01-22T11:43:25.809Z,13.40
2023-01-22T11:48:52.930Z,12.90
2023-01-22T11:54:18.906Z,17.50
2023-01-22T11:59:41.911Z,15.00
2023-01-22T12:05:13.201Z,10.00
2023-01-22T12:10:59.013Z,12.40
2023-01-22T12:16:16.663Z,12.70
2023-01-22T12:21:40.545Z,17.80
2023-01-22T12:27:02.960Z,17.70
2023-01-22T12:32:12.136Z,13.40
2023-01-22T12:37:22.280Z,15.10
2023-01-22T12:42:37.498Z,14.30
2023-01-22T12:47:57.860Z,10.70
2023-01-22T12:53:06.282Z,12.00
2023-01-22T12:58:24.346Z,19.10
2023-01-22T13:03:32.002Z,13.70
2023-01-22T13:08:42.543Z,13.00
2023-01-22T13:13:58.505Z,12.60
2023-01-22T13:19:21.899Z,11.50
2023-01-22T13:24:27.447Z,15.00
2023-01-22T13:29:36.786Z,29.10
2023-01-22T13:34:42.354Z,19.20
2023-01-22T13:39:47.954Z,27.70
2023-01-22T13:44:55.520Z,21.20
2023-01-22T13:50:01.769Z,19.40
2023-01-22T13:55:16.082Z,20.40
2023-01-22T14:00:30.311Z,10.50
2023-01-22T14:05:37.669Z,15.10
2023-01-22T14:10:43.793Z,14.00
2023-01-22T14:15:59.163Z,11.00
2023-01-22T14:21:06.139Z,17.30
2023-01-22T14:26:11.876Z,9.60
2023-01-22T14:31:17.488Z,13.00
2023-01-22T14:36:23.101Z,10.90
2023-01-22T14:41:28.688Z,11.50
2023-01-22T14:46:36.333Z,13.50
2023-01-22T14:51:42.056Z,11.60
2023-01-22T14:56:47.692Z,10.60
2023-01-22T15:01:53.462Z,10.30
2023-01-22T15:06:59.292Z,9.90
2023-01-22T15:12:05.785Z,14.10
2023-01-22T15:17:11.352Z,17.90
2023-01-22T15:22:17.359Z,12.20
2023-01-22T15:27:22.905Z,15.70
2023-01-22T15:32:28.682Z,13.50
2023-01-22T15:37:34.445Z,15.60
2023-01-22T15:42:39.945Z,15.60
2023-01-22T15:47:45.583Z,15.90
2023-01-22T15:52:56.989Z,13.00
2023-01-22T15:58:02.395Z,11.10
2023-01-22T16:03:08.177Z,13.50
2023-01-22T16:08:13.668Z,9.70
2023-01-22T16:13:19.322Z,10.30
2023-01-22T16:18:25.155Z,10.10
2023-01-22T16:23:32.480Z,11.70
2023-01-22T16:28:38.440Z,7.50
2023-01-22T16:33:46.785Z,9.50
2023-01-22T16:38:52.769Z,10.00
2023-01-22T16:44:01.272Z,11.70
2023-01-22T16:49:13.972Z,10.90
2023-01-22T16:54:23.948Z,11.70
2023-01-22T16:59:30.330Z,6.80
2023-01-22T17:04:35.919Z,10.80
2023-01-22T17:09:41.535Z,16.60
2023-01-22T17:14:52.145Z,9.20
2023-01-22T17:19:57.758Z,7.80
2023-01-22T17:25:03.584Z,12.10
2023-01-22T17:30:12.835Z,9.60
2023-01-22T17:35:18.967Z,36.50
2023-01-22T17:40:26.041Z,11.40
2023-01-22T17:45:31.552Z,15.60
2023-01-22T17:50:37.265Z,8.20
2023-01-22T17:55:42.886Z,15.80
2023-01-22T18:00:48.348Z,12.70
2023-01-22T18:05:54.623Z,11.50
2023-01-22T18:11:06.753Z,22.50
2023-01-22T18:16:15.852Z,38.50
2023-01-22T18:21:22.752Z,28.20
2023-01-22T18:26:28.962Z,43.50
2023-01-22T18:31:34.760Z,23.30
2023-01-22T18:36:42.145Z,24.20
2023-01-22T18:41:48.383Z,19.80
2023-01-22T18:46:56.849Z,21.40
2023-01-22T18:52:02.420Z,27.00
2023-01-22T18:57:08.022Z,17.50
2023-01-22T19:02:16.987Z,13.10
2023-01-22T19:07:22.630Z,14.40
2023-01-22T19:12:28.223Z,14.90
2023-01-22T19:17:33.881Z,10.80
2023-01-22T19:22:39.437Z,17.30
2023-01-22T19:27:45.009Z,10.90
2023-01-22T19:32:53.830Z,16.30
2023-01-22T19:37:59.648Z,11.70
2023-01-22T19:43:06.159Z,13.20
2023-01-22T19:48:11.701Z,12.90
2023-01-22T19:53:17.223Z,14.40
2023-01-22T19:58:22.895Z,15.40
2023-01-22T20:03:28.499Z,22.40
2023-01-22T20:08:35.919Z,18.30
2023-01-22T20:13:42.794Z,18.70
2023-01-22T20:18:49.464Z,17.50
2023-01-22T20:23:55.648Z,52.20
2023-01-22T20:29:02.224Z,42.50
2023-01-22T20:34:07.873Z,21.90
2023-01-22T20:39:13.878Z,20.70
2023-01-22T20:44:19.402Z,14.10
2023-01-22T20:49:25.030Z,20.40
2023-01-22T20:54:31.739Z,27.00
2023-01-22T20:59:37.310Z,15.10
2023-01-22T21:04:42.919Z,22.50
2023-01-22T21:09:49.431Z,17.10
2023-01-22T21:14:56.752Z,14.40
2023-01-22T21:20:02.358Z,15.20
2023-01-22T21:25:10.063Z,13.50
2023-01-22T21:30:17.315Z,14.70
2023-01-22T21:35:23.216Z,12.50
2023-01-22T21:40:29.987Z,12.50
2023-01-22T21:45:56.244Z,10.70
2023-01-22T21:51:03.344Z,10.60
2023-01-22T21:56:10.068Z,11.10
2023-01-22T22:01:19.560Z,13.90
2023-01-22T22:06:27.090Z,11.00
2023-01-22T22:11:33.155Z,12.50
2023-01-22T22:16:39.000Z,14.60
2023-01-22T22:21:44.940Z,12.40
2023-01-22T22:26:50.573Z,11.80
2023-01-22T22:31:56.040Z,12.10
2023-01-22T22:37:01.560Z,10.20
2023-01-22T22:42:07.591Z,10.50
2023-01-22T22:47:13.150Z,14.70
2023-01-22T22:52:18.738Z,8.90
2023-01-22T22:57:24.198Z,10.20
2023-01-22T23:02:29.695Z,10.20
2023-01-22T23:07:35.374Z,8.70
2023-01-22T23:12:41.022Z,13.20
2023-01-22T23:17:46.589Z,12.70
2023-01-22T23:22:55.142Z,8.70
2023-01-22T23:28:00.676Z,10.50
2023-01-22T23:33:06.606Z,8.70
2023-01-22T23:38:12.267Z,8.10
2023-01-22T23:43:17.779Z,11.40
2023-01-22T23:48:23.810Z,10.30
2023-01-22T23:53:29.981Z,9.00
2023-01-22T23:58:36.886Z,11.60
